createdAt,value
2022-10-14T00:01:08.241Z,14.30
2022-10-14T00:03:36.203Z,14.20
2022-10-14T00:06:14.975Z,14.30
2022-10-14T00:08:42.652Z,14.20
2022-10-14T00:11:18.040Z,14.30
2022-10-14T00:13:45.573Z,14.30
2022-10-14T00:16:20.752Z,14.40
2022-10-14T00:18:48.257Z,14.40
2022-10-14T00:21:15.985Z,14.30
2022-10-14T00:23:43.538Z,14.30
2022-10-14T00:26:24.545Z,14.30
2022-10-14T00:28:52.574Z,14.30
2022-10-14T00:31:20.869Z,14.30
2022-10-14T00:33:48.273Z,14.30
2022-10-14T00:36:17.028Z,14.30
2022-10-14T00:38:45.524Z,14.40
2022-10-14T00:41:21.535Z,14.30
2022-10-14T00:44:00.040Z,14.30
2022-10-14T00:46:29.601Z,14.30
2022-10-14T00:48:58.086Z,14.30
2022-10-14T00:51:25.390Z,14.30
2022-10-14T00:53:52.330Z,14.30
2022-10-14T00:56:24.826Z,14.30
2022-10-14T00:58:52.659Z,14.30
2022-10-14T01:01:19.554Z,14.30
2022-10-14T01:03:46.550Z,14.20
2022-10-14T01:06:32.309Z,14.20
2022-10-14T01:09:48.267Z,14.20
2022-10-14T01:12:30.161Z,14.20
2022-10-14T01:15:16.466Z,14.10
2022-10-14T01:18:09.429Z,14.10
2022-10-14T01:20:48.202Z,14.10
2022-10-14T01:27:25.967Z,14.10
2022-10-14T01:30:17.044Z,14.10
2022-10-14T01:38:46.193Z,14.20
2022-10-14T01:43:52.194Z,14.10
2022-10-14T01:46:22.182Z,14.10
2022-10-14T01:48:54.839Z,14.20
2022-10-14T01:51:28.598Z,14.20
2022-10-14T01:54:02.068Z,14.20
2022-10-14T01:56:31.537Z,14.10
2022-10-14T01:59:01.131Z,14.20
2022-10-14T02:01:28.053Z,14.20
2022-10-14T02:03:54.924Z,14.20
2022-10-14T02:06:36.545Z,14.20
2022-10-14T02:09:36.062Z,14.20
2022-10-14T02:12:23.475Z,14.10
2022-10-14T02:15:16.136Z,14.20
2022-10-14T02:17:55.907Z,14.10
2022-10-14T02:20:41.535Z,14.20
2022-10-14T02:23:24.863Z,14.20
2022-10-14T02:25:53.994Z,14.20
2022-10-14T02:28:30.777Z,14.20
2022-10-14T02:31:09.935Z,14.30
2022-10-14T02:33:45.562Z,14.30
2022-10-14T02:41:48.973Z,14.30
2022-10-14T02:44:19.104Z,14.30
2022-10-14T02:46:45.905Z,14.30
2022-10-14T02:49:12.980Z,14.30
2022-10-14T02:51:39.832Z,14.30
2022-10-14T02:54:06.714Z,14.30
2022-10-14T02:56:37.301Z,14.30
2022-10-14T03:26:37.615Z,14.40
2022-10-14T03:29:04.459Z,14.30
2022-10-14T03:31:31.383Z,14.30
2022-10-14T03:33:58.204Z,14.30
2022-10-14T03:36:25.502Z,14.40
2022-10-14T03:38:53.019Z,14.40
2022-10-14T03:41:21.201Z,14.40
2022-10-14T03:43:48.210Z,14.40
2022-10-14T03:46:17.677Z,14.40
2022-10-14T03:48:44.677Z,14.40
2022-10-14T03:57:36.204Z,14.40
2022-10-14T04:00:06.286Z,14.40
2022-10-14T04:05:37.881Z,14.40
2022-10-14T04:08:05.396Z,14.40
2022-10-14T04:10:34.116Z,14.40
2022-10-14T04:13:01.420Z,14.40
2022-10-14T04:15:28.933Z,14.50
2022-10-14T04:17:57.307Z,14.50
2022-10-14T04:20:24.076Z,14.50
2022-10-14T04:22:54.739Z,14.50
2022-10-14T04:25:22.132Z,14.50
2022-10-14T04:27:48.895Z,14.50
2022-10-14T04:30:15.625Z,14.50
2022-10-14T04:32:42.395Z,14.60
2022-10-14T04:35:09.890Z,14.60
2022-10-14T04:37:36.609Z,14.60
2022-10-14T04:40:04.077Z,14.50
2022-10-14T04:42:31.034Z,14.50
2022-10-14T04:45:00.059Z,14.50
2022-10-14T04:47:26.828Z,14.40
2022-10-14T04:49:53.581Z,14.50
2022-10-14T04:52:20.616Z,14.50
2022-10-14T04:54:47.673Z,14.60
2022-10-14T04:57:14.583Z,14.60
2022-10-14T04:59:41.458Z,14.60
2022-10-14T05:02:08.373Z,14.50
2022-10-14T05:04:35.197Z,14.50
2022-10-14T05:07:01.964Z,14.50
2022-10-14T05:09:28.858Z,14.60
2022-10-14T05:11:55.797Z,14.50
2022-10-14T05:14:23.011Z,14.50
2022-10-14T05:16:51.691Z,14.50
2022-10-14T05:19:18.471Z,14.50
2022-10-14T05:21:45.185Z,14.50
2022-10-14T05:24:11.874Z,14.50
2022-10-14T05:26:38.552Z,14.50
2022-10-14T05:29:05.266Z,14.60
2022-10-14T05:31:32.025Z,14.50
2022-10-14T05:33:58.816Z,14.50
2022-10-14T05:36:25.614Z,14.60
2022-10-14T05:38:57.893Z,14.50
2022-10-14T05:41:28.393Z,14.50
2022-10-14T05:43:55.235Z,14.50
2022-10-14T05:46:22.213Z,14.60
2022-10-14T05:48:48.969Z,14.60
2022-10-14T05:51:16.647Z,14.60
2022-10-14T05:53:43.645Z,14.60
2022-10-14T05:56:10.569Z,14.60
2022-10-14T05:58:37.548Z,14.50
2022-10-14T06:01:06.331Z,14.50
2022-10-14T06:03:33.595Z,14.60
2022-10-14T06:06:00.511Z,14.50
2022-10-14T06:08:28.762Z,14.50
2022-10-14T06:10:58.114Z,14.50
2022-10-14T06:13:24.957Z,14.50
2022-10-14T06:15:51.729Z,14.50
2022-10-14T06:18:20.799Z,14.50
2022-10-14T06:20:54.336Z,14.40
2022-10-14T06:23:23.962Z,14.50
2022-10-14T06:25:50.810Z,14.40
2022-10-14T06:28:17.879Z,14.30
2022-10-14T06:30:53.270Z,14.20
2022-10-14T06:33:23.334Z,14.20
2022-10-14T06:35:50.196Z,14.20
2022-10-14T06:38:17.193Z,14.20
2022-10-14T06:40:46.585Z,14.20
2022-10-14T06:43:13.350Z,14.20
2022-10-14T06:45:40.132Z,14.10
2022-10-14T06:48:07.096Z,14.20
2022-10-14T06:50:34.349Z,14.20
2022-10-14T06:53:01.329Z,14.20
2022-10-14T06:55:36.743Z,14.20
2022-10-14T06:58:03.654Z,14.20
2022-10-14T07:00:31.838Z,14.10
2022-10-14T07:02:59.754Z,14.20
2022-10-14T07:05:27.625Z,14.20
2022-10-14T07:07:54.617Z,14.20
2022-10-14T07:10:21.573Z,14.20
2022-10-14T07:12:48.886Z,14.20
2022-10-14T07:15:22.131Z,14.30
2022-10-14T07:17:49.160Z,14.20
2022-10-14T07:20:16.295Z,14.20
2022-10-14T07:22:43.356Z,14.20
2022-10-14T07:25:10.697Z,14.30
2022-10-14T07:27:37.640Z,14.30
2022-10-14T07:30:06.122Z,14.30
2022-10-14T07:32:39.648Z,14.30
2022-10-14T07:35:10.393Z,14.30
2022-10-14T07:37:46.636Z,14.30
2022-10-14T07:40:13.678Z,14.30
2022-10-14T07:42:43.588Z,14.40
2022-10-14T07:45:16.091Z,14.40
2022-10-14T07:47:43.876Z,14.40
2022-10-14T07:50:11.611Z,14.40
2022-10-14T07:52:41.079Z,14.50
2022-10-14T07:55:08.330Z,14.50
2022-10-14T07:57:35.198Z,14.50
2022-10-14T08:00:06.423Z,14.60
2022-10-14T08:02:33.202Z,14.50
2022-10-14T08:07:50.396Z,14.60
2022-10-14T08:10:17.489Z,14.60
2022-10-14T08:12:44.517Z,14.70
2022-10-14T08:15:11.370Z,14.70
2022-10-14T08:17:38.108Z,14.70
2022-10-14T08:20:05.253Z,14.80
2022-10-14T08:22:31.875Z,14.80
2022-10-14T08:25:00.799Z,14.80
2022-10-14T08:27:27.526Z,14.80
2022-10-14T08:29:57.440Z,14.80
2022-10-14T08:32:24.840Z,14.80
2022-10-14T08:34:51.744Z,14.80
2022-10-14T08:37:20.610Z,14.90
2022-10-14T08:39:50.467Z,14.90
2022-10-14T08:43:05.556Z,14.90
2022-10-14T08:45:42.721Z,15.10
2022-10-14T08:48:15.544Z,15.10
2022-10-14T08:50:59.382Z,15.10
2022-10-14T08:53:32.667Z,15.10
2022-10-14T08:56:01.200Z,15.10
2022-10-14T08:58:38.796Z,15.20
2022-10-14T09:01:19.236Z,15.30
2022-10-14T09:03:45.967Z,15.20
2022-10-14T09:06:25.027Z,15.20
2022-10-14T09:08:57.240Z,15.30
2022-10-14T09:11:25.218Z,15.20
2022-10-14T09:14:02.872Z,15.40
2022-10-14T09:16:36.617Z,15.40
2022-10-14T09:19:11.625Z,15.40
2022-10-14T09:21:59.069Z,15.50
2022-10-14T09:24:36.329Z,15.50
2022-10-14T09:27:18.434Z,15.60
2022-10-14T09:29:59.090Z,15.60
2022-10-14T09:32:39.747Z,15.50
2022-10-14T09:35:17.215Z,15.50
2022-10-14T09:37:43.965Z,15.60
2022-10-14T09:40:11.126Z,15.60
2022-10-14T09:42:59.578Z,15.60
2022-10-14T09:45:28.686Z,15.70
2022-10-14T09:48:07.584Z,15.80
2022-10-14T09:50:43.609Z,15.80
2022-10-14T09:53:30.805Z,15.90
2022-10-14T09:56:01.052Z,15.90
2022-10-14T09:58:55.394Z,15.90
2022-10-14T10:01:27.826Z,16.10
2022-10-14T10:03:55.965Z,16.10
2022-10-14T10:06:27.835Z,16.20
2022-10-14T10:08:55.215Z,16.20
2022-10-14T10:11:30.393Z,16.30
2022-10-14T10:13:58.072Z,16.20
2022-10-14T10:16:24.780Z,16.30
2022-10-14T10:18:54.049Z,16.30
2022-10-14T10:21:27.787Z,16.30
2022-10-14T10:24:01.414Z,16.30
2022-10-14T10:26:31.834Z,16.30
2022-10-14T10:29:03.898Z,16.30
2022-10-14T10:31:58.468Z,16.30
2022-10-14T10:34:34.552Z,16.30
2022-10-14T10:37:26.205Z,16.40
2022-10-14T10:40:02.045Z,16.30
2022-10-14T10:42:43.567Z,16.30
2022-10-14T10:45:28.571Z,16.30
2022-10-14T10:48:01.242Z,16.30
2022-10-14T10:50:48.429Z,16.30
2022-10-14T10:53:32.905Z,16.30
2022-10-14T10:56:05.934Z,16.40
2022-10-14T10:58:56.511Z,16.40
2022-10-14T11:01:41.130Z,16.40
2022-10-14T11:04:31.118Z,16.40
2022-10-14T11:07:39.293Z,16.30
2022-10-14T11:10:43.336Z,16.30
2022-10-14T11:13:36.265Z,16.20
2022-10-14T11:16:07.551Z,16.20
2022-10-14T11:18:46.363Z,16.30
2022-10-14T11:21:16.117Z,16.30
2022-10-14T11:23:59.700Z,16.30
2022-10-14T11:26:45.912Z,16.30
2022-10-14T11:29:37.420Z,16.30
2022-10-14T11:32:20.890Z,16.30
2022-10-14T11:35:29.999Z,16.30
2022-10-14T11:38:24.469Z,16.40
2022-10-14T11:41:08.235Z,16.40
2022-10-14T11:44:17.089Z,16.40
2022-10-14T11:46:51.416Z,16.40
2022-10-14T11:49:33.191Z,16.40
2022-10-14T11:52:19.897Z,16.40
2022-10-14T11:55:01.703Z,16.50
2022-10-14T11:57:54.966Z,16.40
2022-10-14T12:00:45.120Z,16.30
2022-10-14T12:03:27.395Z,16.40
2022-10-14T12:06:06.331Z,16.40
2022-10-14T12:08:55.669Z,16.40
2022-10-14T12:11:31.182Z,16.40
2022-10-14T12:14:04.430Z,16.40
2022-10-14T12:16:32.362Z,16.40
2022-10-14T12:18:59.256Z,16.30
2022-10-14T12:21:35.523Z,16.30
2022-10-14T12:24:10.764Z,16.30
2022-10-14T12:26:55.731Z,16.30
2022-10-14T12:29:25.922Z,16.20
2022-10-14T12:32:05.028Z,16.20
2022-10-14T12:34:34.886Z,16.20
2022-10-14T12:37:27.191Z,16.20
2022-10-14T12:40:03.751Z,16.30
2022-10-14T12:42:33.343Z,16.30
2022-10-14T12:45:05.329Z,16.40
2022-10-14T12:47:35.365Z,16.40
2022-10-14T12:50:15.693Z,16.40
2022-10-14T12:52:47.279Z,16.40
2022-10-14T12:55:23.164Z,16.40
2022-10-14T12:58:05.134Z,16.50
2022-10-14T13:00:39.057Z,16.50
2022-10-14T13:03:17.631Z,16.50
2022-10-14T13:05:45.778Z,16.50
2022-10-14T13:08:25.510Z,16.50
2022-10-14T13:10:55.347Z,16.60
2022-10-14T13:13:49.354Z,16.60
2022-10-14T13:16:24.960Z,16.60
2022-10-14T13:18:58.429Z,16.60
2022-10-14T13:21:37.073Z,16.70
2022-10-14T13:24:27.070Z,16.80
2022-10-14T13:26:53.881Z,16.70
2022-10-14T13:29:20.637Z,16.70
2022-10-14T13:31:59.786Z,16.60
2022-10-14T13:34:51.135Z,16.60
2022-10-14T13:37:29.989Z,16.70
2022-10-14T13:39:59.866Z,16.50
2022-10-14T13:42:36.622Z,16.60
2022-10-14T13:45:15.689Z,16.60
2022-10-14T13:47:48.156Z,16.50
2022-10-14T13:50:19.168Z,16.50
2022-10-14T13:52:58.993Z,16.60
2022-10-14T13:55:27.235Z,16.60
2022-10-14T13:58:13.622Z,16.50
2022-10-14T14:00:55.320Z,16.50
2022-10-14T14:03:40.255Z,16.50
2022-10-14T14:06:13.823Z,16.60
2022-10-14T14:08:54.556Z,16.50
2022-10-14T14:11:28.321Z,16.60
2022-10-14T14:14:27.582Z,16.60
2022-10-14T14:20:09.736Z,16.70
2022-10-14T14:26:17.401Z,16.70
2022-10-14T14:28:37.816Z,16.70
2022-10-14T14:31:04.992Z,16.70
2022-10-14T14:33:35.845Z,16.80
2022-10-14T14:36:04.960Z,16.80
2022-10-14T14:38:34.584Z,16.80
2022-10-14T14:41:23.281Z,16.70
2022-10-14T14:44:07.600Z,16.70
2022-10-14T14:46:42.429Z,16.70
2022-10-14T14:49:15.797Z,16.70
2022-10-14T14:51:44.889Z,16.70
2022-10-14T14:54:20.602Z,16.70
2022-10-14T14:56:49.471Z,16.60
2022-10-14T14:59:31.399Z,16.60
2022-10-14T15:04:28.580Z,16.60
2022-10-14T15:07:21.361Z,16.60
2022-10-14T15:10:04.290Z,16.60
2022-10-14T15:12:34.318Z,16.60
2022-10-14T15:15:02.798Z,16.70
2022-10-14T15:17:33.482Z,16.70
2022-10-14T15:20:20.580Z,16.70
2022-10-14T15:22:48.979Z,16.70
2022-10-14T15:25:22.874Z,16.70
2022-10-14T15:27:56.862Z,16.80
2022-10-14T15:30:37.378Z,16.80
2022-10-14T15:33:19.355Z,16.80
2022-10-14T15:35:53.875Z,16.80
2022-10-14T15:38:20.694Z,16.70
2022-10-14T15:40:51.154Z,16.70
2022-10-14T15:43:20.612Z,16.70
2022-10-14T15:46:08.825Z,16.70
2022-10-14T15:48:36.506Z,16.70
2022-10-14T15:51:05.357Z,16.70
2022-10-14T15:53:32.702Z,16.70
2022-10-14T15:56:00.344Z,16.60
2022-10-14T15:58:27.283Z,16.60
2022-10-14T16:00:54.343Z,16.70
2022-10-14T16:03:21.109Z,16.70
2022-10-14T16:05:48.325Z,16.70
2022-10-14T16:08:15.327Z,16.60
2022-10-14T16:10:46.928Z,16.60
2022-10-14T16:13:14.131Z,16.60
2022-10-14T16:15:54.595Z,16.60
2022-10-14T16:18:24.658Z,16.60
2022-10-14T16:20:54.168Z,16.60
2022-10-14T16:23:22.608Z,16.50
2022-10-14T16:25:51.741Z,16.50
2022-10-14T16:28:19.479Z,16.60
2022-10-14T16:30:49.295Z,16.50
2022-10-14T16:33:21.598Z,16.50
2022-10-14T16:35:56.426Z,16.40
2022-10-14T16:38:26.368Z,16.50
2022-10-14T16:40:58.309Z,16.50
2022-10-14T16:43:28.533Z,16.50
2022-10-14T16:45:59.786Z,16.50
2022-10-14T16:48:27.941Z,16.40
2022-10-14T16:50:55.255Z,16.30
2022-10-14T16:53:41.124Z,16.40
2022-10-14T16:56:31.278Z,16.30
2022-10-14T16:58:59.854Z,16.30
2022-10-14T17:01:29.525Z,16.30
2022-10-14T17:03:57.125Z,16.30
2022-10-14T17:06:27.914Z,16.40
2022-10-14T17:08:57.422Z,16.40
2022-10-14T17:11:24.799Z,16.40
2022-10-14T17:13:52.884Z,16.40
2022-10-14T17:16:20.129Z,16.30
2022-10-14T17:18:49.716Z,16.30
2022-10-14T17:21:16.979Z,16.30
2022-10-14T17:23:46.494Z,16.30
2022-10-14T17:26:20.706Z,16.30
2022-10-14T17:28:53.547Z,16.30
2022-10-14T17:31:21.442Z,16.30
2022-10-14T17:33:49.043Z,16.30
2022-10-14T17:36:33.245Z,16.30
2022-10-14T17:39:00.200Z,16.30
2022-10-14T17:41:29.147Z,16.30
2022-10-14T17:43:57.369Z,16.30
2022-10-14T17:46:25.699Z,16.30
2022-10-14T17:48:54.705Z,16.30
2022-10-14T17:51:24.460Z,16.30
2022-10-14T17:53:55.113Z,16.30
2022-10-14T17:56:21.884Z,16.30
2022-10-14T17:58:55.656Z,16.40
2022-10-14T18:01:37.189Z,16.30
2022-10-14T18:04:10.806Z,16.30
2022-10-14T18:06:37.603Z,16.30
2022-10-14T18:09:08.192Z,16.30
2022-10-14T18:12:07.076Z,16.20
2022-10-14T18:14:27.411Z,16.20
2022-10-14T18:16:54.148Z,16.20
2022-10-14T18:19:20.965Z,16.20
2022-10-14T18:21:48.096Z,16.30
2022-10-14T18:24:14.869Z,16.30
2022-10-14T18:26:43.981Z,16.30
2022-10-14T18:29:10.706Z,16.20
2022-10-14T18:31:39.174Z,16.20
2022-10-14T18:34:09.349Z,16.20
2022-10-14T18:36:36.073Z,16.20
2022-10-14T18:39:06.777Z,16.20
2022-10-14T18:41:33.702Z,16.20
2022-10-14T18:44:00.561Z,16.20
2022-10-14T18:46:30.290Z,16.20
2022-10-14T18:48:59.573Z,16.20
2022-10-14T18:51:28.832Z,16.30
2022-10-14T18:54:00.162Z,16.20
2022-10-14T18:56:30.168Z,16.20
2022-10-14T18:59:01.442Z,16.20
2022-10-14T19:01:30.159Z,16.20
2022-10-14T19:03:57.374Z,16.10
2022-10-14T19:06:24.349Z,16.20
2022-10-14T19:08:52.076Z,16.20
2022-10-14T19:11:24.428Z,16.20
2022-10-14T19:13:53.537Z,16.20
2022-10-14T19:16:30.905Z,16.20
2022-10-14T19:19:00.295Z,16.20
2022-10-14T19:21:30.243Z,16.30
2022-10-14T19:24:01.119Z,16.30
2022-10-14T19:26:34.096Z,16.20
2022-10-14T19:29:04.354Z,16.20
2022-10-14T19:31:35.538Z,16.20
2022-10-14T19:34:05.455Z,16.20
2022-10-14T19:36:40.419Z,16.20
2022-10-14T19:39:09.691Z,16.10
2022-10-14T19:41:45.447Z,16.20
2022-10-14T19:44:14.289Z,16.20
2022-10-14T19:46:41.226Z,16.10
2022-10-14T19:49:08.150Z,16.10
2022-10-14T19:51:35.284Z,16.10
2022-10-14T19:54:02.443Z,16.10
2022-10-14T19:56:29.819Z,16.10
2022-10-14T19:59:03.063Z,16.00
2022-10-14T20:01:33.115Z,16.00
2022-10-14T20:04:03.018Z,16.10
2022-10-14T20:06:32.764Z,16.10
2022-10-14T20:08:59.735Z,16.10
2022-10-14T20:11:28.887Z,16.10
2022-10-14T20:13:55.681Z,16.10
2022-10-14T20:16:22.439Z,16.10
2022-10-14T20:18:49.246Z,16.10
2022-10-14T20:21:16.766Z,16.10
2022-10-14T20:23:43.700Z,16.10
2022-10-14T20:26:17.176Z,16.10
2022-10-14T20:28:44.571Z,16.10
2022-10-14T20:31:18.143Z,16.00
2022-10-14T20:33:45.486Z,16.00
2022-10-14T20:36:18.528Z,16.00
2022-10-14T20:38:48.020Z,16.00
2022-10-14T20:41:27.143Z,16.00
2022-10-14T20:44:26.291Z,16.00
2022-10-14T20:46:54.314Z,16.00
2022-10-14T20:49:29.233Z,16.00
2022-10-14T20:51:55.914Z,16.10
2022-10-14T20:54:22.853Z,16.10
2022-10-14T20:56:49.872Z,16.10
2022-10-14T20:59:21.701Z,16.10
2022-10-14T21:01:50.971Z,16.00
2022-10-14T21:04:22.376Z,16.10
2022-10-14T21:06:51.564Z,16.00
2022-10-14T21:09:18.411Z,16.00
2022-10-14T21:11:45.213Z,15.80
2022-10-14T21:14:12.025Z,15.70
2022-10-14T21:16:42.173Z,15.80
2022-10-14T21:19:10.638Z,15.70
2022-10-14T21:21:39.968Z,15.70
2022-10-14T21:24:08.340Z,15.70
2022-10-14T21:26:35.096Z,15.80
2022-10-14T21:29:05.023Z,15.80
2022-10-14T21:31:32.094Z,15.60
2022-10-14T21:34:05.483Z,15.60
2022-10-14T21:36:33.658Z,15.70
2022-10-14T21:39:03.993Z,15.60
2022-10-14T21:41:30.793Z,15.60
2022-10-14T21:43:59.198Z,15.70
2022-10-14T21:46:26.787Z,15.60
2022-10-14T21:48:57.933Z,15.60
2022-10-14T21:51:29.375Z,15.60
2022-10-14T21:53:56.803Z,15.50
2022-10-14T21:56:24.415Z,15.60
2022-10-14T21:58:51.382Z,15.60
2022-10-14T22:01:27.116Z,15.60
2022-10-14T22:03:54.948Z,15.60
2022-10-14T22:06:21.741Z,15.60
2022-10-14T22:08:50.133Z,15.60
2022-10-14T22:11:17.968Z,15.70
2022-10-14T22:13:44.821Z,15.70
2022-10-14T22:16:19.980Z,15.70
2022-10-14T22:18:51.822Z,15.60
2022-10-14T22:21:20.621Z,15.60
2022-10-14T22:23:48.623Z,15.60
2022-10-14T22:26:23.995Z,15.60
2022-10-14T22:28:57.380Z,15.60
2022-10-14T22:31:24.786Z,15.60
2022-10-14T22:33:51.494Z,15.70
2022-10-14T22:36:24.951Z,15.60
2022-10-14T22:38:53.511Z,15.60
2022-10-14T22:41:21.746Z,15.60
2022-10-14T22:43:56.020Z,15.50
2022-10-14T22:46:25.241Z,15.50
2022-10-14T22:48:56.943Z,15.40
2022-10-14T22:53:54.584Z,15.30
2022-10-14T22:56:24.385Z,15.30
2022-10-14T22:58:56.599Z,15.30
2022-10-14T23:01:25.714Z,15.30
2022-10-14T23:03:52.384Z,15.30
2022-10-14T23:06:19.283Z,15.20
2022-10-14T23:08:46.249Z,15.20
2022-10-14T23:11:20.586Z,15.20
2022-10-14T23:13:47.985Z,15.30
2022-10-14T23:16:22.480Z,15.30
2022-10-14T23:18:49.967Z,15.30
2022-10-14T23:21:20.346Z,15.20
2022-10-14T23:23:48.737Z,15.30
2022-10-14T23:26:18.075Z,15.30
2022-10-14T23:28:48.755Z,15.30
2022-10-14T23:31:17.933Z,15.40
2022-10-14T23:33:44.754Z,15.50
2022-10-14T23:36:13.670Z,15.50
2022-10-14T23:38:40.758Z,15.60
2022-10-14T23:41:08.812Z,15.60
2022-10-14T23:43:35.816Z,15.60
2022-10-14T23:46:02.710Z,15.50
2022-10-14T23:48:29.887Z,15.50
2022-10-14T23:50:57.429Z,15.60
2022-10-14T23:53:26.526Z,15.40
2022-10-14T23:55:54.567Z,15.40
2022-10-14T23:58:21.974Z,15.30
